Time;durP1;ratioP1;P1;durP2;ratioP2;P2;SDS_P1;SDS_P2;PMS_P1;PMS_P2;Temp;Humidity;BMP_temperature;BMP_pressure;BME280_temperature;BME280_humidity;BME280_pressure;Samples;Min_cycle;Max_cycle;Signal;HPM_P1;HPM_P2
2022/09/28 00:02:07;;;;;;;28.63;14.63;;;6.80;99.90;;;5.15;100.00;98807.72;4982061;28;20034;-74
2022/09/28 00:04:33;;;;;;;29.52;15.95;;;6.70;99.90;;;5.08;100.00;98805.09;4980806;28;20033;-74
2022/09/28 00:06:59;;;;;;;28.30;15.90;;;6.70;99.90;;;5.02;100.00;98801.41;4980736;28;20037;-73
2022/09/28 00:09:25;;;;;;;30.10;15.50;;;6.70;99.90;;;5.00;100.00;98791.88;4984194;28;20034;-73
2022/09/28 00:11:52;;;;;;;32.55;16.27;;;6.60;99.90;;;5.01;100.00;98805.16;4986028;28;20134;-74
2022/09/28 00:14:19;;;;;;;34.75;16.35;;;6.60;99.90;;;4.98;100.00;98797.50;4968257;28;20514;-73
2022/09/28 00:16:46;;;;;;;28.63;16.42;;;6.60;99.90;;;4.97;100.00;98797.75;4972887;28;20050;-73
2022/09/28 00:19:12;;;;;;;32.67;16.25;;;6.60;99.90;;;4.94;100.00;98790.09;4973681;28;20085;-74
2022/09/28 00:21:40;;;;;;;29.92;16.25;;;6.60;99.90;;;4.78;100.00;98794.22;4980721;28;20069;-74
2022/09/28 00:24:12;;;;;;;;;;;6.40;99.90;;;4.56;100.00;98790.06;4978844;28;20474;-75
2022/09/28 00:26:48;;;;;;;27.35;14.63;;;6.20;99.90;;;4.43;100.00;98790.19;4979386;28;19921;-74
2022/09/28 00:29:18;;;;;;;29.08;15.27;;;6.10;99.90;;;4.48;100.00;98787.66;4973277;28;20244;-74
2022/09/28 00:31:45;;;;;;;33.67;17.27;;;6.10;99.90;;;4.57;100.00;98788.19;4979641;28;20038;-74
2022/09/28 00:34:12;;;;;;;31.60;16.77;;;5.90;99.90;;;4.66;100.00;98777.94;4983706;28;20026;-74
2022/09/28 00:36:38;;;;;;;37.25;17.13;;;6.20;99.90;;;4.71;100.00;98781.59;4988132;28;20022;-74
2022/09/28 00:39:07;;;;;;;37.25;18.40;;;6.30;99.90;;;4.74;100.00;98778.44;4984907;28;20089;-75
2022/09/28 00:41:34;;;;;;;40.85;18.95;;;6.40;99.90;;;4.81;100.00;98772.16;4989589;28;20081;-74
2022/09/28 00:44:54;;;;;;;36.33;17.77;;;6.40;99.90;;;4.83;100.00;98775.47;4975567;28;20029;-74
2022/09/28 00:47:49;;;;;;;36.63;17.67;;;6.40;99.90;;;4.80;100.00;98765.91;5002819;28;20831;-73
2022/09/28 00:50:30;;;;;;;35.67;17.42;;;6.50;99.90;;;4.81;100.00;98764.06;4999931;28;20049;-73
2022/09/28 00:53:20;;;;;;;41.15;17.60;;;6.40;99.90;;;4.70;100.00;98762.91;4965670;28;20093;-72
2022/09/28 00:55:55;;;;;;;34.42;16.10;;;6.40;99.90;;;4.74;100.00;98758.72;4970751;28;20660;-72
2022/09/28 00:58:30;;;;;;;34.35;16.30;;;6.40;99.90;;;4.73;100.00;98752.47;4977650;28;20448;-73
2022/09/28 01:00:58;;;;;;;32.67;15.30;;;6.30;99.90;;;4.70;100.00;98750.22;4987069;28;20022;-74
2022/09/28 01:03:26;;;;;;;;;;;6.30;99.90;;;4.66;100.00;98740.13;4982429;28;20026;-73
2022/09/28 01:05:55;;;;;;;36.20;15.55;;;6.30;99.90;;;4.59;100.00;98734.78;4986494;28;19940;-74
2022/09/28 01:08:23;;;;;;;32.85;15.23;;;6.30;99.90;;;4.64;100.00;98740.31;4981290;28;20030;-73
2022/09/28 01:10:50;;;;;;;32.58;15.60;;;6.30;99.90;;;4.66;100.00;98732.00;4974910;28;20137;-73
2022/09/28 01:13:22;;;;;;;31.33;15.05;;;6.30;99.90;;;4.70;100.00;98733.22;4968915;28;20053;-73
2022/09/28 01:16:10;;;;;;;30.85;14.23;;;6.40;99.90;;;4.74;100.00;98732.50;4979989;28;20035;-73
2022/09/28 01:19:31;;;;;;;28.90;15.05;;;6.40;99.90;;;4.81;100.00;98735.13;4987030;28;20030;-73
2022/09/28 01:22:24;;;;;;;29.00;14.20;;;6.40;99.90;;;4.85;100.00;98735.53;4978751;28;20030;-73
2022/09/28 01:25:37;;;;;;;33.70;14.88;;;6.50;99.90;;;4.74;100.00;98712.78;4985492;28;20050;-73
2022/09/28 01:28:15;;;;;;;27.90;14.38;;;6.50;99.90;;;4.83;100.00;98724.94;4988857;28;20055;-73
2022/09/28 01:30:58;;;;;;;28.90;14.15;;;6.50;99.90;;;4.81;100.00;98729.72;4976981;28;20033;-74
2022/09/28 01:33:36;;;;;;;27.42;14.13;;;6.50;99.90;;;4.78;100.00;98718.56;4986336;28;20033;-73
2022/09/28 01:36:19;;;;;;;27.85;13.82;;;6.50;99.90;;;4.74;100.00;98721.69;4986242;28;20030;-73
2022/09/28 01:39:18;;;;;;;27.42;13.70;;;6.40;99.90;;;4.74;100.00;98718.19;4975468;28;20045;-74
2022/09/28 01:41:50;;;;;;;26.67;13.73;;;6.40;99.90;;;4.79;100.00;98720.22;4993999;28;20072;-74
2022/09/28 01:44:21;;;;;;;27.60;14.02;;;6.40;99.90;;;4.85;100.00;98713.91;4982244;28;20023;-74
2022/09/28 01:46:49;;;;;;;24.42;13.10;;;6.50;99.90;;;4.92;100.00;98714.63;4980413;28;20019;-74
2022/09/28 01:49:38;;;;;;;28.15;14.30;;;6.60;99.90;;;4.99;100.00;98703.75;4976052;28;20247;-74
2022/09/28 01:52:26;;;;;;;;;;;6.60;99.90;;;5.06;100.00;98703.69;4984063;28;20089;-73
2022/09/28 01:55:10;;;;;;;25.20;12.68;;;6.70;99.90;;;5.11;100.00;98704.63;4977517;28;19913;-73
2022/09/28 01:57:54;;;;;;;26.52;14.30;;;6.70;99.90;;;5.13;100.00;98696.28;4978656;28;20099;-73
2022/09/28 02:00:23;;;;;;;25.67;14.02;;;6.80;99.90;;;5.16;100.00;98693.94;4980830;28;20045;-73
2022/09/28 02:03:17;;;;;;;29.73;15.10;;;6.80;99.90;;;5.25;100.00;98693.63;4975755;28;20081;-72
2022/09/28 02:06:05;;;;;;;23.30;13.18;;;6.90;99.90;;;5.23;100.00;98679.53;4994147;28;20413;-73
2022/09/28 02:08:42;;;;;;;26.02;13.95;;;6.90;99.90;;;5.28;100.00;98685.06;4965132;28;20089;-73
2022/09/28 02:11:18;;;;;;;30.55;14.35;;;7.00;99.90;;;5.31;100.00;98688.13;4992387;28;20045;-73
2022/09/28 02:14:10;;;;;;;32.72;15.82;;;7.00;99.90;;;5.27;100.00;98672.59;4982598;28;20479;-73
2022/09/28 02:16:44;;;;;;;28.88;14.30;;;7.00;99.90;;;5.32;100.00;98687.09;4978761;28;20379;-72
2022/09/28 02:19:22;;;;;;;29.63;13.75;;;7.00;99.90;;;5.36;100.00;98679.31;4984891;28;20030;-73
2022/09/28 02:22:27;;;;;;;24.10;13.43;;;7.00;99.90;;;5.37;100.00;98677.44;4991028;28;20038;-72
2022/09/28 02:24:58;;;;;;;24.33;13.32;;;7.00;99.90;;;5.40;100.00;98677.78;4980334;28;20034;-73
2022/09/28 02:27:58;;;;;;;22.77;12.07;;;7.10;99.90;;;5.45;100.00;98682.53;4981407;28;20397;-73
2022/09/28 02:30:24;;;;;;;21.58;12.15;;;7.10;99.90;;;5.47;100.00;98673.13;4978194;28;20062;-73
2022/09/28 02:32:56;;;;;;;23.30;12.15;;;7.10;99.90;;;5.48;100.00;98671.22;4986115;28;20512;-73
2022/09/28 02:35:22;;;;;;;25.88;12.32;;;7.10;99.90;;;5.46;100.00;98667.94;4976155;28;20169;-73
2022/09/28 02:37:49;;;;;;;23.08;12.02;;;7.20;99.90;;;5.47;100.00;98662.31;4981128;28;20121;-75
2022/09/28 02:40:24;;;;;;;25.17;12.57;;;7.20;99.90;;;5.51;100.00;98668.06;4978318;28;20122;-75
2022/09/28 02:43:03;;;;;;;23.75;12.48;;;7.10;99.90;;;5.44;100.00;98653.81;4977445;28;20023;-74
2022/09/28 02:45:50;;;;;;;;;;;7.10;99.90;;;5.55;100.00;98665.72;4997220;28;20081;-75
2022/09/28 02:48:42;;;;;;;23.90;12.55;;;7.10;99.90;;;5.53;100.00;98665.94;4971912;28;19914;-73
2022/09/28 02:51:31;;;;;;;21.95;11.85;;;7.20;99.90;;;5.55;100.00;98663.84;4979409;28;20133;-74
2022/09/28 02:54:02;;;;;;;23.30;12.52;;;7.20;99.90;;;5.55;100.00;98663.84;4973839;28;20549;-74
2022/09/28 02:56:54;;;;;;;28.45;13.18;;;7.20;99.90;;;5.55;100.00;98666.53;4980084;28;20070;-74
2022/09/28 02:59:47;;;;;;;23.23;12.30;;;7.20;99.90;;;5.57;100.00;98655.50;4974544;28;20041;-75
2022/09/28 03:02:49;;;;;;;23.65;12.55;;;7.20;99.90;;;5.55;100.00;98655.72;4978431;28;20061;-74
2022/09/28 03:05:44;;;;;;;24.33;12.00;;;7.20;99.90;;;5.56;100.00;98654.66;4990913;28;20689;-75
2022/09/28 03:08:39;;;;;;;23.05;13.15;;;7.20;99.90;;;5.54;100.00;98648.66;4972718;28;20162;-73
2022/09/28 03:11:23;;;;;;;22.90;12.38;;;7.20;99.90;;;5.50;100.00;98639.38;4980555;28;20058;-75
2022/09/28 03:13:52;;;;;;;24.25;12.65;;;7.20;99.90;;;5.55;100.00;98650.31;4984864;28;20027;-74
2022/09/28 03:16:20;;;;;;;22.60;12.10;;;7.20;99.90;;;5.47;100.00;98635.25;4983673;28;20148;-74
2022/09/28 03:18:48;;;;;;;20.75;11.07;;;7.20;99.90;;;5.53;100.00;98644.31;4979631;28;20089;-75
2022/09/28 03:21:15;;;;;;;22.70;11.73;;;7.20;99.90;;;5.54;100.00;98639.75;4975896;28;20046;-75
2022/09/28 03:23:41;;;;;;;18.88;11.05;;;7.20;99.90;;;5.52;100.00;98637.25;4969848;28;20549;-75
2022/09/28 03:26:10;;;;;;;22.00;11.98;;;7.20;99.90;;;5.48;100.00;98630.66;4989576;28;20033;-74
2022/09/28 03:28:36;;;;;;;21.60;11.82;;;7.20;99.90;;;5.55;100.00;98650.31;4979518;28;20383;-74
2022/09/28 03:31:02;;;;;;;17.90;10.15;;;7.20;99.90;;;5.52;100.00;98639.16;4980760;28;20042;-78
2022/09/28 03:33:28;;;;;;;19.88;10.82;;;7.20;99.90;;;5.55;100.00;98644.91;4977369;28;20049;-75
2022/09/28 03:35:54;;;;;;;18.38;10.95;;;7.20;99.90;;;5.53;100.00;98627.28;4972285;28;20030;-75
2022/09/28 03:38:21;;;;;;;19.02;10.40;;;7.20;99.90;;;5.58;100.00;98636.34;4974027;28;20092;-75
2022/09/28 03:40:58;;;;;;;21.50;11.10;;;7.20;99.90;;;5.61;100.00;98637.75;4979933;28;20117;-76
2022/09/28 03:43:28;;;;;;;19.92;10.60;;;7.20;99.90;;;5.61;100.00;98633.16;4978780;28;20073;-75
2022/09/28 03:45:59;;;;;;;18.42;10.30;;;7.20;99.90;;;5.62;100.00;98633.97;4971397;28;20474;-75
2022/09/28 03:48:31;;;;;;;18.02;10.15;;;7.20;99.90;;;5.59;100.00;98629.03;4973459;28;20627;-76
2022/09/28 03:51:01;;;;;;;22.00;11.05;;;7.20;99.90;;;5.60;100.00;98627.97;4974791;28;20046;-76
2022/09/28 03:53:28;;;;;;;20.08;10.48;;;7.20;99.90;;;5.58;100.00;98622.81;4991987;28;20133;-78
2022/09/28 03:55:55;;;;;;;20.70;11.23;;;7.30;99.90;;;5.66;100.00;98626.22;4972746;28;20119;-77
2022/09/28 03:58:22;;;;;;;21.45;11.10;;;7.30;99.90;;;5.66;100.00;98623.53;4974158;28;20039;-78
2022/09/28 04:00:49;;;;;;;24.13;11.80;;;7.30;99.90;;;5.65;100.00;98617.28;4979951;28;20041;-76
2022/09/28 04:03:14;;;;;;;24.63;11.80;;;7.30;99.90;;;5.65;100.00;98617.28;4977953;28;20022;-76
2022/09/28 04:05:52;;;;;;;27.85;11.75;;;7.30;99.90;;;5.70;100.00;98617.41;4975238;28;20026;-77
2022/09/28 04:08:19;;;;;;;25.67;12.18;;;7.30;99.90;;;5.72;100.00;98612.59;4974738;28;20433;-77
2022/09/28 04:10:45;;;;;;;22.00;10.80;;;7.40;99.90;;;5.73;100.00;98605.28;4977190;28;20029;-76
2022/09/28 04:13:11;;;;;;;30.60;12.63;;;7.40;99.90;;;5.77;100.00;98609.16;4970243;28;20363;-77
2022/09/28 04:15:38;;;;;;;29.60;12.75;;;7.40;99.90;;;5.81;100.00;98613.03;4978986;28;20088;-77
2022/09/28 04:18:12;;;;;;;35.13;12.52;;;7.40;99.90;;;5.81;100.00;98610.34;4977477;28;20039;-78
2022/09/28 04:21:05;;;;;;;38.17;13.55;;;7.40;99.90;;;5.82;100.00;98603.84;4980155;28;20461;-78
2022/09/28 04:23:36;;;;;;;31.67;12.88;;;7.50;99.90;;;5.82;100.00;98608.47;4984865;28;20165;-78
2022/09/28 04:26:05;;;;;;;35.42;13.38;;;7.50;99.90;;;5.82;100.00;98598.44;4976026;28;20046;-78
2022/09/28 04:31:21;;;;;;;35.05;12.95;;;7.50;99.90;;;5.86;100.00;98602.34;4977962;28;20085;-79
2022/09/28 04:33:47;;;;;;;44.72;14.00;;;7.50;99.90;;;5.87;100.00;98597.75;4975043;28;20027;-78
2022/09/28 04:36:13;;;;;;;41.03;14.73;;;7.50;99.90;;;5.92;100.00;98597.06;4973623;28;20436;-79
2022/09/28 04:38:39;;;;;;;40.10;13.85;;;7.50;99.90;;;5.94;100.00;98603.03;4974359;28;20604;-79
2022/09/28 04:41:06;;;;;;;37.90;13.95;;;7.60;99.90;;;5.93;100.00;98593.28;4978174;28;20161;-78
2022/09/28 04:43:33;;;;;;;38.70;14.60;;;7.60;99.90;;;5.96;100.00;98592.81;4981426;28;20443;-78
2022/09/28 04:46:01;;;;;;;50.97;15.18;;;7.60;99.90;;;5.98;100.00;98596.09;4981180;28;20449;-77
2022/09/28 04:48:32;;;;;;;78.32;15.32;;;7.60;99.90;;;5.93;100.00;98587.88;4978224;28;20026;-78
2022/09/28 04:51:10;;;;;;;52.55;14.82;;;7.60;99.90;;;5.86;100.00;98579.88;4980418;28;20043;-78
2022/09/28 04:53:36;;;;;;;36.80;14.13;;;7.60;99.90;;;5.99;100.00;98603.16;4984605;28;20737;-79
2022/09/28 04:56:10;;;;;;;45.78;14.40;;;7.60;99.90;;;5.90;100.00;98579.16;4983427;28;20027;-78
2022/09/28 04:58:39;;;;;;;49.83;14.50;;;7.60;99.90;;;5.98;100.00;98596.94;4980592;28;20035;-78
2022/09/28 05:01:10;;;;;;;35.00;13.32;;;7.60;99.90;;;5.98;100.00;98591.53;4977574;28;20034;-77
2022/09/28 05:03:58;;;;;;;32.22;12.85;;;7.60;99.90;;;5.98;100.00;98590.69;4976683;28;20418;-81
2022/09/28 05:06:30;;;;;;;32.63;12.95;;;7.60;99.90;;;5.96;100.00;98590.09;4970264;28;20054;-79
2022/09/28 05:09:03;;;;;;;30.52;12.63;;;7.60;99.90;;;5.95;100.00;98588.44;4979330;28;20027;-79
2022/09/28 05:11:29;;;;;;;29.55;12.95;;;7.60;99.90;;;5.92;100.00;98584.31;4959281;28;20058;-79
2022/09/28 05:13:55;;;;;;;30.25;12.77;;;7.60;99.90;;;5.84;100.00;98574.72;4977988;28;20030;-79
2022/09/28 05:16:21;;;;;;;28.20;12.45;;;7.60;99.90;;;5.92;100.00;98589.75;4974353;28;20033;-78
2022/09/28 05:19:16;;;;;;;27.85;11.80;;;7.60;99.90;;;5.97;100.00;98591.75;4981139;28;20521;-79
2022/09/28 05:21:45;;;;;;;28.52;11.75;;;7.60;99.90;;;5.94;100.00;98584.91;4976371;28;20050;-79
2022/09/28 05:24:11;;;;;;;27.30;11.95;;;7.50;99.90;;;5.95;100.00;98586.56;4974683;28;20104;-78
2022/09/28 05:26:38;;;;;;;25.88;11.57;;;7.60;99.90;;;6.00;100.00;98596.69;4978373;28;20089;-78
2022/09/28 05:29:06;;;;;;;29.92;12.25;;;7.60;99.90;;;5.99;100.00;98586.91;4985807;28;20042;-80
2022/09/28 05:32:01;;;;;;;31.35;11.40;;;7.60;99.90;;;5.98;100.00;98582.56;4981144;28;20038;-76
2022/09/28 05:34:47;;;;;;;33.67;10.35;;;7.60;99.90;;;6.00;100.00;98583.16;4966544;28;20046;-76
2022/09/28 05:37:18;;;;;;;26.27;10.40;;;7.70;99.90;;;6.02;100.00;98587.31;4991577;28;20030;-76
2022/09/28 05:39:45;;;;;;;31.77;10.90;;;7.70;99.90;;;6.05;100.00;98580.56;5000034;28;20035;-76
2022/09/28 05:42:11;;;;;;;29.08;11.27;;;7.70;99.90;;;6.01;100.00;98568.59;4983035;28;20026;-76
2022/09/28 05:44:37;;;;;;;48.10;11.88;;;7.70;99.90;;;6.08;100.00;98590.91;4977671;28;20022;-76
2022/09/28 05:47:03;;;;;;;30.17;11.23;;;7.70;99.90;;;6.07;100.00;98581.16;4982627;28;20087;-76
2022/09/28 05:49:30;;;;;;;22.80;10.57;;;7.70;99.90;;;6.10;100.00;98583.41;4970016;28;20949;-76
2022/09/28 05:51:57;;;;;;;43.38;11.80;;;7.70;99.90;;;6.08;100.00;98576.59;4981940;28;20133;-76
2022/09/28 05:54:23;;;;;;;28.48;11.38;;;7.70;99.90;;;6.06;100.00;98576.81;4984110;28;20377;-76
2022/09/28 05:56:50;;;;;;;31.65;12.32;;;7.70;99.90;;;6.11;100.00;98579.66;4986012;28;20109;-76
2022/09/28 05:59:15;;;;;;;48.75;11.45;;;7.80;99.90;;;6.11;100.00;98579.66;4978351;28;20271;-76
2022/09/28 06:01:41;;;;;;;43.10;11.95;;;7.80;99.90;;;6.12;100.00;98570.47;4980084;28;20034;-76
2022/09/28 06:04:09;;;;;;;49.88;11.57;;;7.80;99.90;;;6.08;100.00;98563.03;4967907;28;20027;-76
2022/09/28 06:06:37;;;;;;;59.78;12.07;;;7.80;99.90;;;6.21;100.00;98583.63;4973717;28;20062;-76
2022/09/28 06:09:03;;;;;;;44.40;11.90;;;7.80;99.90;;;6.23;100.00;98576.88;4984445;28;20038;-76
2022/09/28 06:12:07;;;;;;;65.72;13.57;;;7.80;99.90;;;6.22;100.00;98574.44;4984916;28;20300;-76
2022/09/28 06:15:00;;;;;;;49.13;12.35;;;7.90;99.90;;;6.30;100.00;98585.72;4976466;28;20038;-76
2022/09/28 06:17:25;;;;;;;39.90;12.25;;;7.90;99.90;;;6.33;100.00;98589.81;4993904;28;20036;-76
2022/09/28 06:20:11;;;;;;;49.00;11.55;;;8.00;99.90;;;6.36;100.00;98589.34;4978879;28;20099;-76
2022/09/28 06:22:55;;;;;;;48.95;12.30;;;8.00;99.90;;;6.36;100.00;98583.91;4982531;28;20026;-76
2022/09/28 06:25:22;;;;;;;42.42;12.32;;;8.00;99.90;;;6.41;100.00;98594.88;4971599;28;20117;-75
2022/09/28 06:28:00;;;;;;;35.50;12.40;;;8.00;99.90;;;6.45;100.00;98589.78;4979075;28;20130;-75
2022/09/28 06:30:29;;;;;;;42.38;12.13;;;8.10;99.90;;;6.47;100.00;98584.94;4983083;28;20511;-74
2022/09/28 06:32:57;;;;;;;42.95;12.85;;;8.10;99.90;;;6.50;100.00;98589.91;4979063;28;20049;-74
2022/09/28 06:35:26;;;;;;;31.85;11.40;;;8.10;99.90;;;6.52;100.00;98595.06;4981043;28;20121;-74
2022/09/28 06:37:52;;;;;;;41.20;12.30;;;8.10;99.90;;;6.57;100.00;98595.16;4977905;28;20035;-75
2022/09/28 06:40:20;;;;;;;70.55;13.20;;;8.20;99.90;;;6.60;100.00;98594.69;4966817;28;20058;-76
2022/09/28 06:43:02;;;;;;;31.35;12.38;;;8.20;99.90;;;6.64;100.00;98601.28;4974939;28;20122;-75
2022/09/28 06:45:52;;;;;;;45.53;12.18;;;8.20;99.90;;;6.68;100.00;98598.91;4974479;28;20030;-75
2022/09/28 06:48:44;;;;;;;32.65;12.15;;;8.30;99.90;;;6.58;100.00;98583.28;4982253;28;20046;-75
2022/09/28 06:51:17;;;;;;;46.42;12.90;;;8.30;99.90;;;6.68;100.00;98607.88;4979535;28;20046;-75
2022/09/28 06:53:55;;;;;;;47.63;12.63;;;8.30;99.90;;;6.73;100.00;98602.53;4972951;28;20026;-75
2022/09/28 06:56:46;;;;;;;45.85;12.55;;;8.30;99.90;;;6.69;100.00;98598.69;4996411;28;20129;-75
2022/09/28 06:59:12;;;;;;;33.53;12.60;;;8.30;99.90;;;6.65;100.00;98585.84;4981270;28;20504;-75
2022/09/28 07:01:38;;;;;;;38.38;12.70;;;8.40;99.90;;;6.78;100.00;98606.41;4980080;28;20396;-75
2022/09/28 07:04:17;;;;;;;;;;;8.40;99.90;;;6.78;100.00;98606.41;4976498;28;20125;-75
2022/09/28 07:07:01;;;;;;;38.72;11.88;;;8.40;99.90;;;6.78;100.00;98609.97;4984113;28;19964;-76
2022/09/28 07:09:54;;;;;;;34.58;13.45;;;8.40;99.90;;;6.72;100.00;98600.91;4970537;28;20041;-77
2022/09/28 07:12:29;;;;;;;31.17;12.30;;;8.40;99.90;;;6.80;100.00;98605.13;4977126;28;20034;-77
2022/09/28 07:14:59;;;;;;;25.77;10.88;;;8.40;99.90;;;6.76;100.00;98610.19;4979935;28;20053;-76
2022/09/28 07:17:27;;;;;;;27.75;11.98;;;8.40;99.90;;;6.83;100.00;98622.78;4980292;28;20034;-76
2022/09/28 07:19:56;;;;;;;27.30;12.40;;;8.40;99.90;;;6.87;100.00;98616.63;4983552;28;20035;-76
2022/09/28 07:22:23;;;;;;;26.83;11.70;;;8.50;99.90;;;6.74;100.00;98620.44;4976057;28;20368;-77
2022/09/28 07:24:50;;;;;;;30.50;11.93;;;8.40;99.90;;;6.83;100.00;98630.91;4976190;28;20034;-76
2022/09/28 07:27:58;;;;;;;27.85;11.30;;;8.40;99.90;;;6.97;100.00;98624.13;4981776;28;20030;-76
2022/09/28 07:30:43;;;;;;;35.28;11.45;;;8.50;99.90;;;7.03;100.00;98619.63;4970469;28;20077;-76
2022/09/28 07:33:17;;;;;;;28.98;11.77;;;8.60;99.90;;;7.18;100.00;98632.66;4973007;28;20042;-77
2022/09/28 07:35:54;;;;;;;27.55;11.18;;;8.70;99.90;;;7.16;100.00;98630.16;4981390;28;20042;-77
2022/09/28 07:38:24;;;;;;;26.35;11.30;;;8.80;99.90;;;7.17;100.00;98626.38;4970231;28;20363;-77
2022/09/28 07:41:15;;;;;;;23.83;10.52;;;;;;;7.27;100.00;98633.06;4968217;28;20037;-76
2022/09/28 07:43:44;;;;;;;22.55;11.20;;;8.80;99.90;;;7.18;100.00;98614.47;4972357;28;20117;-77
2022/09/28 07:46:10;;;;;;;31.52;11.32;;;8.90;99.90;;;7.30;100.00;98633.41;4969811;28;20656;-77
2022/09/28 07:48:44;;;;;;;26.55;10.70;;;8.90;99.90;;;7.34;100.00;98642.69;4982562;28;20154;-77
2022/09/28 07:51:20;;;;;;;25.92;11.00;;;8.90;99.90;;;7.35;100.00;98638.09;4959148;28;20527;-76
2022/09/28 07:53:56;;;;;;;23.88;10.63;;;8.90;99.90;;;7.41;100.00;98638.97;4973597;28;20125;-77
2022/09/28 07:56:40;;;;;;;21.75;9.68;;;9.00;99.90;;;7.38;100.00;98645.75;4979077;28;20505;-77
2022/09/28 07:59:16;;;;;;;21.33;9.13;;;9.00;99.90;;;7.43;100.00;98650.44;4983265;28;20096;-77
2022/09/28 08:02:02;;;;;;;17.25;8.18;;;9.00;99.90;;;7.40;100.00;98648.19;4982180;28;20035;-77
2022/09/28 08:04:29;;;;;;;13.32;7.50;;;9.00;99.90;;;7.41;100.00;98653.38;4994227;28;20324;-76
2022/09/28 08:06:55;;;;;;;17.30;8.48;;;9.00;99.90;;;7.41;100.00;98653.38;4977508;28;20113;-74
2022/09/28 08:09:20;;;;;;;13.13;7.35;;;9.00;99.90;;;7.34;100.00;98645.41;4976934;28;20508;-76
2022/09/28 08:12:06;;;;;;;12.40;6.97;;;9.00;99.90;;;7.34;100.00;98658.16;4983914;28;20057;-75
2022/09/28 08:14:39;;;;;;;12.25;7.43;;;9.00;99.90;;;7.28;100.00;98659.94;4980348;28;20038;-76
2022/09/28 08:17:23;;;;;;;16.38;7.85;;;8.90;99.90;;;7.29;100.00;98664.31;4970810;28;20162;-76
2022/09/28 08:22:38;;;;;;;13.95;7.50;;;8.90;99.90;;;7.18;100.00;98660.56;4964717;28;20141;-76
2022/09/28 08:25:04;;;;;;;13.30;7.85;;;8.80;99.90;;;7.20;100.00;98669.28;4982814;28;20034;-76
2022/09/28 08:27:31;;;;;;;13.88;7.15;;;8.80;99.90;;;7.20;100.00;98668.47;4980541;28;20515;-76
2022/09/28 08:29:57;;;;;;;11.23;7.30;;;8.80;99.90;;;7.18;100.00;98670.63;4971448;28;20066;-76
2022/09/28 08:32:37;;;;;;;11.05;6.60;;;8.80;99.90;;;7.22;100.00;98670.94;4989537;28;20026;-76
2022/09/28 08:35:24;;;;;;;15.07;7.13;;;8.80;99.90;;;7.20;100.00;98672.00;4980268;28;20151;-76
2022/09/28 08:38:12;;;;;;;11.90;7.10;;;8.80;99.90;;;7.21;100.00;98691.81;4973179;28;20490;-76
2022/09/28 08:41:49;;;;;;;12.57;6.82;;;8.80;99.90;;;7.21;100.00;98691.81;4979854;28;20104;-75
2022/09/28 08:44:50;;;;;;;8.18;4.70;;;8.80;99.90;;;6.86;100.00;98682.75;4976171;28;20172;-75
2022/09/28 08:51:26;;;;;;;9.27;4.90;;;8.40;99.90;;;6.71;100.00;98702.25;4971855;28;20081;-75
2022/09/28 08:54:44;;;;;;;11.05;5.97;;;8.30;99.90;;;6.78;100.00;98702.13;4980208;28;20081;-75
2022/09/28 08:57:28;;;;;;;10.65;6.05;;;8.30;99.90;;;6.60;100.00;98694.94;4975311;28;20089;-75
2022/09/28 08:59:58;;;;;;;13.43;6.65;;;8.30;99.90;;;6.48;100.00;98697.66;4983505;28;20382;-75
2022/09/28 09:02:35;;;;;;;10.30;4.68;;;8.30;99.90;;;6.48;100.00;98713.91;4983561;28;20042;-76
2022/09/28 09:05:34;;;;;;;10.48;4.90;;;8.20;99.90;;;6.41;100.00;98710.53;4971071;28;20038;-75
2022/09/28 09:08:40;;;;;;;9.18;4.28;;;8.10;99.90;;;6.42;100.00;98721.13;4976655;28;20041;-77
2022/09/28 09:11:37;;;;;;;7.18;3.80;;;8.00;99.90;;;6.31;100.00;98716.53;4986969;28;20093;-76
2022/09/28 09:14:26;;;;;;;8.00;4.00;;;8.00;99.90;;;6.40;100.00;98728.66;4979459;28;20053;-77
2022/09/28 09:17:04;;;;;;;10.95;3.85;;;8.00;99.90;;;6.43;100.00;98722.78;4981430;28;20039;-75
2022/09/28 09:20:25;;;;;;;9.02;4.75;;;8.10;99.90;;;6.47;100.00;98731.22;4979121;28;20496;-75
2022/09/28 09:23:11;;;;;;;5.45;3.22;;;8.10;99.90;;;6.32;100.00;98734.44;4983466;28;20509;-74
2022/09/28 09:25:45;;;;;;;5.28;2.90;;;8.00;99.90;;;6.29;100.00;98738.44;4983449;28;20037;-78
2022/09/28 09:28:55;;;;;;;6.18;3.47;;;7.90;99.90;;;6.33;100.00;98736.06;4979336;28;20043;-76
2022/09/28 09:31:45;;;;;;;9.65;4.78;;;8.00;99.90;;;6.53;100.00;98743.03;4978036;28;20452;-78
2022/09/28 09:34:50;;;;;;;7.50;4.75;;;8.10;99.90;;;6.60;100.00;98749.97;4983223;28;20089;-75
2022/09/28 09:38:08;;;;;;;7.82;5.10;;;8.20;99.90;;;6.66;100.00;98761.75;4978316;28;20042;-75
2022/09/28 09:41:27;;;;;;;8.40;5.38;;;8.30;99.90;;;6.66;100.00;98758.22;4983408;28;20042;-76
2022/09/28 09:44:51;;;;;;;7.65;4.10;;;8.30;99.90;;;6.52;100.00;98758.47;4984458;28;20058;-75
2022/09/28 09:48:00;;;;;;;7.80;4.75;;;8.20;99.90;;;6.57;100.00;98758.56;4979474;28;20030;-75
2022/09/28 09:50:52;;;;;;;8.90;4.55;;;8.30;99.90;;;6.62;100.00;98763.25;4980489;28;20046;-76
2022/09/28 09:53:42;;;;;;;8.77;4.97;;;8.40;99.90;;;6.82;100.00;98770.19;4980653;28;20046;-76
2022/09/28 09:56:22;;;;;;;9.65;5.45;;;8.40;99.90;;;7.03;100.00;98771.47;4992328;28;20045;-78
2022/09/28 09:59:32;;;;;;;11.50;4.95;;;8.60;99.90;;;7.09;100.00;98773.22;4979084;28;20835;-74
2022/09/28 10:02:24;;;;;;;7.80;5.22;;;8.80;99.90;;;7.10;100.00;98780.28;4978526;28;20026;-75
2022/09/28 10:05:10;;;;;;;8.80;5.25;;;8.80;99.90;;;7.30;100.00;98781.78;4979035;28;20412;-74
2022/09/28 10:07:46;;;;;;;11.50;5.50;;;8.90;99.90;;;7.40;100.00;98779.25;4977388;28;20041;-75
2022/09/28 10:10:26;;;;;;;7.47;4.88;;;9.00;99.90;;;7.32;100.00;98787.78;4978583;28;20055;-75
2022/09/28 10:12:56;;;;;;;6.05;4.38;;;9.10;99.90;;;7.37;100.00;98785.16;4970668;28;20028;-75
2022/09/28 10:15:35;;;;;;;9.00;4.15;;;9.10;99.90;;;7.30;100.00;98789.91;4983963;28;20053;-75
2022/09/28 10:18:14;;;;;;;9.95;4.05;;;9.00;99.90;;;7.20;100.00;98782.41;4981798;28;20031;-76
2022/09/28 10:20:59;;;;;;;6.63;3.58;;;8.90;99.90;;;7.25;100.00;98789.78;4976958;28;20076;-75
2022/09/28 10:23:43;;;;;;;6.57;2.63;;;8.90;99.90;;;7.21;100.00;98781.34;4970923;28;20030;-74
2022/09/28 10:26:21;;;;;;;7.03;3.67;;;8.90;99.90;;;7.28;100.00;98786.59;4980276;28;20030;-76
2022/09/28 10:29:02;;;;;;;6.45;3.58;;;8.90;99.90;;;7.28;100.00;98786.59;4980001;28;20027;-75
2022/09/28 10:31:38;;;;;;;4.30;2.22;;;8.90;99.90;;;7.19;100.00;98802.44;4983556;28;20393;-75
2022/09/28 10:34:15;;;;;;;4.82;2.83;;;8.90;99.90;;;7.27;100.00;98807.47;4973737;28;20030;-75
2022/09/28 10:36:50;;;;;;;4.60;3.20;;;8.90;99.90;;;7.44;100.00;98801.31;4979314;28;20042;-75
2022/09/28 10:39:32;;;;;;;5.22;3.33;;;9.00;99.90;;;7.62;100.00;98798.38;4970461;28;20031;-75
2022/09/28 10:42:06;;;;;;;6.78;3.35;;;9.20;99.90;;;7.89;100.00;98802.41;4974861;28;20051;-76
2022/09/28 10:45:03;;;;;;;4.57;3.13;;;9.40;99.90;;;8.10;100.00;98809.00;4974256;28;21475;-76
2022/09/28 10:47:35;;;;;;;4.53;2.65;;;9.60;99.90;;;8.20;100.00;98806.44;4979634;28;20034;-76
2022/09/28 10:50:18;;;;;;;4.57;2.60;;;9.70;99.90;;;7.68;100.00;98804.75;4974512;28;20034;-77
2022/09/28 10:52:45;;;;;;;5.35;2.75;;;9.60;99.90;;;7.44;100.00;98812.97;4976845;28;20034;-79
2022/09/28 10:55:31;;;;;;;4.53;3.00;;;9.30;99.90;;;7.43;100.00;98815.94;4977827;28;20040;-78
2022/09/28 10:57:58;;;;;;;5.13;2.92;;;9.10;99.90;;;7.44;100.00;98817.59;4976739;28;20054;-76
2022/09/28 11:00:42;;;;;;;5.68;3.85;;;9.00;99.90;;;7.16;100.00;98813.75;4978524;28;20108;-77
2022/09/28 11:03:23;;;;;;;7.22;4.22;;;8.80;99.90;;;7.24;100.00;98818.81;4971902;28;20027;-77
2022/09/28 11:06:06;;;;;;;10.77;5.22;;;8.90;99.90;;;7.33;100.00;98811.13;4976119;28;20046;-77
2022/09/28 11:08:42;;;;;;;7.32;4.78;;;8.90;99.90;;;7.43;100.00;98822.19;4969890;28;20113;-78
2022/09/28 11:11:15;;;;;;;7.65;5.40;;;9.00;99.90;;;7.57;100.00;98820.00;4968300;28;20529;-76
2022/09/28 11:13:49;;;;;;;9.82;5.32;;;9.20;99.90;;;7.42;100.00;98819.69;4978799;28;20105;-77